sensor_id;sensor_type;location;lat;lon;timestamp;pressure;altitude;pressure_sealevel;temperature;humidity
10948;BME280;5526;42.070;24.752;2023-04-27T00:01:57;98461.16;;;12.59;64.62
10948;BME280;5526;42.070;24.752;2023-04-27T00:04:24;98464.59;;;12.60;64.39
10948;BME280;5526;42.070;24.752;2023-04-27T00:06:51;98464.81;;;12.63;64.93
10948;BME280;5526;42.070;24.752;2023-04-27T00:09:18;98451.41;;;12.60;64.71
10948;BME280;5526;42.070;24.752;2023-04-27T00:11:45;98466.16;;;12.61;64.72
10948;BME280;5526;42.070;24.752;2023-04-27T00:14:12;98460.88;;;12.61;64.31
10948;BME280;5526;42.070;24.752;2023-04-27T00:16:39;98473.06;;;12.62;64.22
10948;BME280;5526;42.070;24.752;2023-04-27T00:19:07;98483.88;;;12.60;64.04
10948;BME280;5526;42.070;24.752;2023-04-27T00:21:34;98481.25;;;12.55;64.52
10948;BME280;5526;42.070;24.752;2023-04-27T00:24:01;98487.56;;;12.59;64.38
10948;BME280;5526;42.070;24.752;2023-04-27T00:26:28;98485.16;;;12.63;64.17
10948;BME280;5526;42.070;24.752;2023-04-27T00:28:55;98499.47;;;12.57;64.46
10948;BME280;5526;42.070;24.752;2023-04-27T00:31:23;98514.94;;;12.40;64.07
10948;BME280;5526;42.070;24.752;2023-04-27T00:33:50;98511.28;;;12.36;64.72
10948;BME280;5526;42.070;24.752;2023-04-27T00:36:18;98507.81;;;12.40;65.18
10948;BME280;5526;42.070;24.752;2023-04-27T00:38:45;98503.25;;;12.46;65.77
10948;BME280;5526;42.070;24.752;2023-04-27T00:41:13;98518.13;;;12.37;66.71
10948;BME280;5526;42.070;24.752;2023-04-27T00:43:43;98513.13;;;12.35;66.61
10948;BME280;5526;42.070;24.752;2023-04-27T00:46:12;98516.13;;;12.24;67.63
10948;BME280;5526;42.070;24.752;2023-04-27T00:48:40;98528.03;;;12.16;68.41
10948;BME280;5526;42.070;24.752;2023-04-27T00:51:07;98512.56;;;12.05;68.28
10948;BME280;5526;42.070;24.752;2023-04-27T00:53:36;98526.72;;;12.14;68.47
10948;BME280;5526;42.070;24.752;2023-04-27T00:56:03;98534.09;;;12.17;69.06
10948;BME280;5526;42.070;24.752;2023-04-27T00:58:30;98535.75;;;12.03;70.21
10948;BME280;5526;42.070;24.752;2023-04-27T01:00:59;98529.47;;;11.99;70.64
10948;BME280;5526;42.070;24.752;2023-04-27T01:03:26;98538.53;;;11.88;71.99
10948;BME280;5526;42.070;24.752;2023-04-27T01:05:53;98536.06;;;11.96;72.91
10948;BME280;5526;42.070;24.752;2023-04-27T01:08:21;98546.66;;;11.91;72.60
10948;BME280;5526;42.070;24.752;2023-04-27T01:10:49;98536.41;;;11.85;73.60
10948;BME280;5526;42.070;24.752;2023-04-27T01:13:16;98534.34;;;11.77;74.03
10948;BME280;5526;42.070;24.752;2023-04-27T01:15:43;98547.31;;;11.68;74.93
10948;BME280;5526;42.070;24.752;2023-04-27T01:18:10;98546.75;;;11.71;75.56
10948;BME280;5526;42.070;24.752;2023-04-27T01:20:38;98544.69;;;11.58;76.99
10948;BME280;5526;42.070;24.752;2023-04-27T01:23:06;98537.31;;;11.55;77.67
10948;BME280;5526;42.070;24.752;2023-04-27T01:25:35;98535.03;;;11.34;78.15
10948;BME280;5526;42.070;24.752;2023-04-27T01:28:02;98550.78;;;11.44;77.22
10948;BME280;5526;42.070;24.752;2023-04-27T01:30:29;98551.31;;;11.46;77.64
10948;BME280;5526;42.070;24.752;2023-04-27T01:32:56;98555.81;;;11.45;78.10
10948;BME280;5526;42.070;24.752;2023-04-27T01:35:23;98551.84;;;11.43;77.71
10948;BME280;5526;42.070;24.752;2023-04-27T01:37:50;98553.94;;;11.51;77.17
10948;BME280;5526;42.070;24.752;2023-04-27T01:40:17;98556.56;;;11.51;76.90
10948;BME280;5526;42.070;24.752;2023-04-27T01:42:46;98567.16;;;11.41;75.86
10948;BME280;5526;42.070;24.752;2023-04-27T01:45:13;98569.00;;;11.40;76.56
10948;BME280;5526;42.070;24.752;2023-04-27T01:47:40;98565.84;;;11.43;76.73
10948;BME280;5526;42.070;24.752;2023-04-27T01:50:08;98560.56;;;11.43;76.57
10948;BME280;5526;42.070;24.752;2023-04-27T01:52:35;98567.97;;;11.36;75.75
10948;BME280;5526;42.070;24.752;2023-04-27T01:55:02;98566.63;;;11.39;74.93
10948;BME280;5526;42.070;24.752;2023-04-27T01:57:29;98564.22;;;11.42;74.49
10948;BME280;5526;42.070;24.752;2023-04-27T01:59:58;98572.41;;;11.46;74.38
10948;BME280;5526;42.070;24.752;2023-04-27T02:02:25;98567.66;;;11.53;74.36
10948;BME280;5526;42.070;24.752;2023-04-27T02:04:52;98576.63;;;11.47;73.74
10948;BME280;5526;42.070;24.752;2023-04-27T02:07:19;98582.16;;;11.40;73.27
10948;BME280;5526;42.070;24.752;2023-04-27T02:09:46;98581.91;;;11.42;73.14
10948;BME280;5526;42.070;24.752;2023-04-27T02:12:13;98580.03;;;11.42;72.81
10948;BME280;5526;42.070;24.752;2023-04-27T02:14:40;98583.22;;;11.39;72.35
10948;BME280;5526;42.070;24.752;2023-04-27T02:17:08;98586.63;;;11.50;72.17
10948;BME280;5526;42.070;24.752;2023-04-27T02:19:35;98593.22;;;11.42;72.15
10948;BME280;5526;42.070;24.752;2023-04-27T02:22:02;98589.53;;;11.43;72.59
10948;BME280;5526;42.070;24.752;2023-04-27T02:24:29;98586.09;;;11.48;72.61
10948;BME280;5526;42.070;24.752;2023-04-27T02:26:56;98585.53;;;11.56;71.92
10948;BME280;5526;42.070;24.752;2023-04-27T02:29:29;98591.09;;;11.54;71.27
10948;BME280;5526;42.070;24.752;2023-04-27T02:31:56;98592.16;;;11.48;71.07
10948;BME280;5526;42.070;24.752;2023-04-27T02:34:24;98601.63;;;11.54;69.89
10948;BME280;5526;42.070;24.752;2023-04-27T02:36:51;98595.56;;;11.54;70.05
10948;BME280;5526;42.070;24.752;2023-04-27T02:39:18;98599.28;;;11.53;69.65
10948;BME280;5526;42.070;24.752;2023-04-27T02:41:45;98604.25;;;11.59;69.83
10948;BME280;5526;42.070;24.752;2023-04-27T02:44:12;98596.63;;;11.63;69.77
10948;BME280;5526;42.070;24.752;2023-04-27T02:46:39;98606.88;;;11.64;69.25
10948;BME280;5526;42.070;24.752;2023-04-27T02:49:06;98606.66;;;11.61;69.19
10948;BME280;5526;42.070;24.752;2023-04-27T02:51:35;98610.34;;;11.50;66.97
10948;BME280;5526;42.070;24.752;2023-04-27T02:54:02;98606.38;;;11.52;67.14
10948;BME280;5526;42.070;24.752;2023-04-27T02:56:29;98576.91;;;11.40;67.97
10948;BME280;5526;42.070;24.752;2023-04-27T02:58:56;98618.75;;;11.62;67.69
10948;BME280;5526;42.070;24.752;2023-04-27T03:01:23;98621.66;;;11.60;65.98
10948;BME280;5526;42.070;24.752;2023-04-27T03:03:50;98619.25;;;11.64;66.18
10948;BME280;5526;42.070;24.752;2023-04-27T03:06:18;98612.94;;;11.70;66.11
10948;BME280;5526;42.070;24.752;2023-04-27T03:08:46;98622.41;;;11.71;65.76
10948;BME280;5526;42.070;24.752;2023-04-27T03:11:13;98620.03;;;11.69;65.92
10948;BME280;5526;42.070;24.752;2023-04-27T03:13:40;98619.78;;;11.71;65.40
10948;BME280;5526;42.070;24.752;2023-04-27T03:16:08;98626.91;;;11.70;65.08
10948;BME280;5526;42.070;24.752;2023-04-27T03:18:36;98625.84;;;11.71;64.97
10948;BME280;5526;42.070;24.752;2023-04-27T03:21:05;98625.59;;;11.73;64.94
10948;BME280;5526;42.070;24.752;2023-04-27T03:23:32;98636.38;;;11.71;64.37
10948;BME280;5526;42.070;24.752;2023-04-27T03:26:04;98634.81;;;11.70;64.59
10948;BME280;5526;42.070;24.752;2023-04-27T03:28:31;98629.00;;;11.68;64.02
10948;BME280;5526;42.070;24.752;2023-04-27T03:30:58;98642.97;;;11.74;63.14
10948;BME280;5526;42.070;24.752;2023-04-27T03:33:25;98639.25;;;11.75;63.02
10948;BME280;5526;42.070;24.752;2023-04-27T03:35:56;98645.06;;;11.72;61.64
10948;BME280;5526;42.070;24.752;2023-04-27T03:38:23;98654.03;;;11.81;62.40
10948;BME280;5526;42.070;24.752;2023-04-27T03:40:51;98642.44;;;11.77;62.18
10948;BME280;5526;42.070;24.752;2023-04-27T03:43:20;98636.66;;;11.60;62.35
10948;BME280;5526;42.070;24.752;2023-04-27T03:45:47;98646.41;;;11.74;61.87
10948;BME280;5526;42.070;24.752;2023-04-27T03:48:15;98650.34;;;11.72;61.71
10948;BME280;5526;42.070;24.752;2023-04-27T03:50:42;98658.81;;;11.64;60.53
10948;BME280;5526;42.070;24.752;2023-04-27T03:53:09;98652.22;;;11.71;60.75
10948;BME280;5526;42.070;24.752;2023-04-27T03:55:37;98653.22;;;11.80;60.97
10948;BME280;5526;42.070;24.752;2023-04-27T03:58:04;98662.47;;;11.78;60.44
10948;BME280;5526;42.070;24.752;2023-04-27T04:00:33;98668.25;;;11.75;59.60
10948;BME280;5526;42.070;24.752;2023-04-27T04:03:00;98669.84;;;11.81;59.81
10948;BME280;5526;42.070;24.752;2023-04-27T04:05:27;98668.75;;;11.87;59.54
10948;BME280;5526;42.070;24.752;2023-04-27T04:07:55;98669.84;;;11.81;59.20
10948;BME280;5526;42.070;24.752;2023-04-27T04:10:22;98674.56;;;11.79;58.56
10948;BME280;5526;42.070;24.752;2023-04-27T04:12:50;98674.06;;;11.82;57.82
10948;BME280;5526;42.070;24.752;2023-04-27T04:15:17;98678.53;;;11.86;58.02
10948;BME280;5526;42.070;24.752;2023-04-27T04:17:46;98678.22;;;11.93;58.28
10948;BME280;5526;42.070;24.752;2023-04-27T04:20:13;98686.91;;;11.98;58.03
10948;BME280;5526;42.070;24.752;2023-04-27T04:22:41;98686.63;;;12.05;58.32
10948;BME280;5526;42.070;24.752;2023-04-27T04:25:09;98687.38;;;12.15;57.80
10948;BME280;5526;42.070;24.752;2023-04-27T04:27:36;98691.59;;;12.11;57.71
10948;BME280;5526;42.070;24.752;2023-04-27T04:30:04;98690.53;;;12.12;58.03
10948;BME280;5526;42.070;24.752;2023-04-27T04:32:31;98695.03;;;12.12;58.01
10948;BME280;5526;42.070;24.752;2023-04-27T04:35:00;98695.53;;;12.14;57.98
10948;BME280;5526;42.070;24.752;2023-04-27T04:37:29;98699.25;;;12.13;57.56
10948;BME280;5526;42.070;24.752;2023-04-27T04:39:56;98697.13;;;12.15;57.61
10948;BME280;5526;42.070;24.752;2023-04-27T04:42:23;98702.31;;;12.30;57.54
10948;BME280;5526;42.070;24.752;2023-04-27T04:44:50;98708.16;;;12.32;56.85
10948;BME280;5526;42.070;24.752;2023-04-27T04:47:17;98705.75;;;12.35;57.64
10948;BME280;5526;42.070;24.752;2023-04-27T04:49:44;98712.38;;;12.28;56.53
10948;BME280;5526;42.070;24.752;2023-04-27T04:52:13;98712.19;;;12.04;55.70
10948;BME280;5526;42.070;24.752;2023-04-27T04:54:40;98708.72;;;12.14;56.14
10948;BME280;5526;42.070;24.752;2023-04-27T04:57:07;98715.06;;;12.13;56.26
10948;BME280;5526;42.070;24.752;2023-04-27T04:59:34;98718.22;;;12.15;56.90
10948;BME280;5526;42.070;24.752;2023-04-27T05:02:01;98725.31;;;12.29;56.53
10948;BME280;5526;42.070;24.752;2023-04-27T05:04:28;98722.75;;;12.09;56.40
10948;BME280;5526;42.070;24.752;2023-04-27T05:06:55;98730.41;;;12.06;56.41
10948;BME280;5526;42.070;24.752;2023-04-27T05:09:23;98729.53;;;12.20;56.24
10948;BME280;5526;42.070;24.752;2023-04-27T05:11:50;98738.81;;;12.13;56.67
10948;BME280;5526;42.070;24.752;2023-04-27T05:14:17;98737.25;;;12.12;56.67
10948;BME280;5526;42.070;24.752;2023-04-27T05:16:44;98737.75;;;12.14;56.98
10948;BME280;5526;42.070;24.752;2023-04-27T05:19:13;98742.47;;;12.22;56.43
10948;BME280;5526;42.070;24.752;2023-04-27T05:21:43;98739.56;;;12.23;56.07
10948;BME280;5526;42.070;24.752;2023-04-27T05:24:10;98743.22;;;12.37;55.70
10948;BME280;5526;42.070;24.752;2023-04-27T05:26:38;98752.66;;;12.48;55.53
10948;BME280;5526;42.070;24.752;2023-04-27T05:29:07;98752.25;;;12.21;55.15
10948;BME280;5526;42.070;24.752;2023-04-27T05:31:35;98745.84;;;12.37;54.88
10948;BME280;5526;42.070;24.752;2023-04-27T05:34:02;98751.06;;;12.52;54.50
10948;BME280;5526;42.070;24.752;2023-04-27T05:36:29;98742.19;;;12.77;54.60
10948;BME280;5526;42.070;24.752;2023-04-27T05:38:56;98742.47;;;12.75;53.69
10948;BME280;5526;42.070;24.752;2023-04-27T05:41:23;98746.03;;;12.56;54.09
10948;BME280;5526;42.070;24.752;2023-04-27T05:43:51;98747.09;;;12.50;53.06
10948;BME280;5526;42.070;24.752;2023-04-27T05:46:19;98750.97;;;12.67;53.27
10948;BME280;5526;42.070;24.752;2023-04-27T05:48:46;98757.91;;;12.53;53.39
10948;BME280;5526;42.070;24.752;2023-04-27T05:51:13;98757.28;;;12.76;53.24
10948;BME280;5526;42.070;24.752;2023-04-27T05:53:41;98760.72;;;12.72;52.97
10948;BME280;5526;42.070;24.752;2023-04-27T05:56:08;98765.50;;;12.65;53.46
10948;BME280;5526;42.070;24.752;2023-04-27T05:58:36;98756.81;;;12.64;53.49
10948;BME280;5526;42.070;24.752;2023-04-27T06:01:04;98753.25;;;12.30;53.66
10948;BME280;5526;42.070;24.752;2023-04-27T06:03:31;98762.16;;;12.49;54.02
10948;BME280;5526;42.070;24.752;2023-04-27T06:05:59;98780.56;;;12.64;54.12
10948;BME280;5526;42.070;24.752;2023-04-27T06:08:27;98763.53;;;12.37;54.11
10948;BME280;5526;42.070;24.752;2023-04-27T06:10:55;98776.44;;;12.38;52.62
10948;BME280;5526;42.070;24.752;2023-04-27T06:13:22;98778.84;;;12.35;53.22
10948;BME280;5526;42.070;24.752;2023-04-27T06:15:49;98775.09;;;12.46;53.51
10948;BME280;5526;42.070;24.752;2023-04-27T06:18:17;98774.53;;;12.54;52.71
10948;BME280;5526;42.070;24.752;2023-04-27T06:20:44;98789.31;;;12.50;52.72
10948;BME280;5526;42.070;24.752;2023-04-27T06:23:11;98779.31;;;12.52;52.48
10948;BME280;5526;42.070;24.752;2023-04-27T06:25:38;98780.34;;;12.56;51.89
10948;BME280;5526;42.070;24.752;2023-04-27T06:28:05;98785.53;;;12.76;52.24
10948;BME280;5526;42.070;24.752;2023-04-27T06:30:33;98776.44;;;13.02;52.09
10948;BME280;5526;42.070;24.752;2023-04-27T06:33:00;98769.91;;;12.79;51.23
10948;BME280;5526;42.070;24.752;2023-04-27T06:35:28;98777.09;;;13.18;50.47
10948;BME280;5526;42.070;24.752;2023-04-27T06:37:56;98779.91;;;13.31;50.36
10948;BME280;5526;42.070;24.752;2023-04-27T06:40:24;98780.19;;;13.30;50.34
10948;BME280;5526;42.070;24.752;2023-04-27T06:42:51;98780.59;;;13.08;50.86
10948;BME280;5526;42.070;24.752;2023-04-27T06:45:18;98782.34;;;13.23;50.55
10948;BME280;5526;42.070;24.752;2023-04-27T06:47:45;98789.13;;;13.34;49.91
10948;BME280;5526;42.070;24.752;2023-04-27T06:50:13;98789.41;;;13.37;50.47
10948;BME280;5526;42.070;24.752;2023-04-27T06:52:42;98780.59;;;13.47;50.30
10948;BME280;5526;42.070;24.752;2023-04-27T06:55:10;98778.78;;;13.42;50.04
10948;BME280;5526;42.070;24.752;2023-04-27T06:57:37;98787.94;;;13.16;50.43
10948;BME280;5526;42.070;24.752;2023-04-27T07:00:05;98792.16;;;13.22;50.65
10948;BME280;5526;42.070;24.752;2023-04-27T07:02:33;98783.53;;;13.40;50.58
10948;BME280;5526;42.070;24.752;2023-04-27T07:05:00;98793.06;;;13.36;50.70
10948;BME280;5526;42.070;24.752;2023-04-27T07:07:27;98789.22;;;13.57;50.47
10948;BME280;5526;42.070;24.752;2023-04-27T07:09:56;98788.75;;;13.50;50.10
10948;BME280;5526;42.070;24.752;2023-04-27T07:12:23;98787.34;;;13.58;50.25
10948;BME280;5526;42.070;24.752;2023-04-27T07:14:50;98790.13;;;13.76;50.48
10948;BME280;5526;42.070;24.752;2023-04-27T07:17:17;98788.44;;;14.14;50.35
10948;BME280;5526;42.070;24.752;2023-04-27T07:19:44;98791.81;;;14.19;49.48
10948;BME280;5526;42.070;24.752;2023-04-27T07:22:11;98794.47;;;14.19;48.96
10948;BME280;5526;42.070;24.752;2023-04-27T07:24:40;98788.06;;;14.25;48.86
10948;BME280;5526;42.070;24.752;2023-04-27T07:27:08;98787.09;;;14.40;48.37
10948;BME280;5526;42.070;24.752;2023-04-27T07:29:35;98792.44;;;14.58;48.93
10948;BME280;5526;42.070;24.752;2023-04-27T07:32:04;98785.59;;;14.76;47.57
10948;BME280;5526;42.070;24.752;2023-04-27T07:34:31;98778.50;;;15.08;47.09
10948;BME280;5526;42.070;24.752;2023-04-27T07:36:59;98783.56;;;15.23;46.92
10948;BME280;5526;42.070;24.752;2023-04-27T07:39:27;98777.63;;;15.13;46.40
10948;BME280;5526;42.070;24.752;2023-04-27T07:41:54;98778.13;;;15.33;46.33
10948;BME280;5526;42.070;24.752;2023-04-27T07:44:22;98781.91;;;15.64;45.77
10948;BME280;5526;42.070;24.752;2023-04-27T07:46:50;98779.75;;;15.80;45.55
10948;BME280;5526;42.070;24.752;2023-04-27T07:49:19;98759.09;;;15.63;45.44
10948;BME280;5526;42.070;24.752;2023-04-27T07:51:46;98778.34;;;16.14;44.04
10948;BME280;5526;42.070;24.752;2023-04-27T07:54:13;98776.38;;;16.47;43.26
10948;BME280;5526;42.070;24.752;2023-04-27T07:56:41;98783.13;;;15.85;43.25
10948;BME280;5526;42.070;24.752;2023-04-27T07:59:08;98774.03;;;16.18;43.15
10948;BME280;5526;42.070;24.752;2023-04-27T08:01:37;98778.91;;;15.98;43.73
10948;BME280;5526;42.070;24.752;2023-04-27T08:04:04;98776.38;;;16.60;42.98
10948;BME280;5526;42.070;24.752;2023-04-27T08:06:31;98756.78;;;16.29;41.92
10948;BME280;5526;42.070;24.752;2023-04-27T08:08:58;98781.41;;;16.48;42.10
10948;BME280;5526;42.070;24.752;2023-04-27T08:11:27;98776.69;;;16.18;42.29
10948;BME280;5526;42.070;24.752;2023-04-27T08:13:54;98772.34;;;16.09;41.80
10948;BME280;5526;42.070;24.752;2023-04-27T08:16:22;98781.00;;;16.14;42.48
10948;BME280;5526;42.070;24.752;2023-04-27T08:18:50;98773.81;;;16.15;42.21
10948;BME280;5526;42.070;24.752;2023-04-27T08:21:17;98772.66;;;16.34;43.08
10948;BME280;5526;42.070;24.752;2023-04-27T08:23:44;98765.44;;;16.35;41.65
10948;BME280;5526;42.070;24.752;2023-04-27T08:26:13;98767.25;;;16.53;41.44
10948;BME280;5526;42.070;24.752;2023-04-27T08:28:41;98758.28;;;16.62;40.70
10948;BME280;5526;42.070;24.752;2023-04-27T08:31:08;98751.28;;;16.66;42.08
10948;BME280;5526;42.070;24.752;2023-04-27T08:33:35;98746.31;;;17.09;41.05
10948;BME280;5526;42.070;24.752;2023-04-27T08:36:04;98747.44;;;16.59;41.70
10948;BME280;5526;42.070;24.752;2023-04-27T08:38:33;98741.69;;;16.92;41.47
10948;BME280;5526;42.070;24.752;2023-04-27T08:41:00;98759.81;;;16.77;41.17
10948;BME280;5526;42.070;24.752;2023-04-27T08:43:32;98762.56;;;16.85;41.06
10948;BME280;5526;42.070;24.752;2023-04-27T08:45:59;98755.81;;;17.02;41.04
10948;BME280;5526;42.070;24.752;2023-04-27T08:48:27;98751.66;;;16.73;41.13
10948;BME280;5526;42.070;24.752;2023-04-27T08:50:55;98742.78;;;16.78;40.45
10948;BME280;5526;42.070;24.752;2023-04-27T08:53:26;98744.28;;;17.28;40.16
10948;BME280;5526;42.070;24.752;2023-04-27T08:55:54;98730.34;;;17.75;39.06
10948;BME280;5526;42.070;24.752;2023-04-27T08:58:34;98735.50;;;17.72;39.76
10948;BME280;5526;42.070;24.752;2023-04-27T09:01:04;98730.31;;;17.97;39.02
10948;BME280;5526;42.070;24.752;2023-04-27T09:03:32;98732.34;;;17.61;38.91
10948;BME280;5526;42.070;24.752;2023-04-27T09:06:00;98718.69;;;17.63;38.19
10948;BME280;5526;42.070;24.752;2023-04-27T09:08:40;98712.94;;;18.56;37.29
10948;BME280;5526;42.070;24.752;2023-04-27T09:11:07;98722.31;;;18.45;36.72
10948;BME280;5526;42.070;24.752;2023-04-27T09:13:35;98721.25;;;18.07;37.11
10948;BME280;5526;42.070;24.752;2023-04-27T09:16:03;98721.28;;;17.76;37.16
10948;BME280;5526;42.070;24.752;2023-04-27T09:18:33;98714.16;;;17.94;37.60
10948;BME280;5526;42.070;24.752;2023-04-27T09:21:01;98721.25;;;18.80;36.29
10948;BME280;5526;42.070;24.752;2023-04-27T09:23:31;98716.22;;;18.53;37.26
10948;BME280;5526;42.070;24.752;2023-04-27T09:26:00;98720.34;;;18.84;36.49
10948;BME280;5526;42.070;24.752;2023-04-27T09:28:29;98718.47;;;19.02;36.53
10948;BME280;5526;42.070;24.752;2023-04-27T09:30:58;98716.09;;;19.09;35.78
10948;BME280;5526;42.070;24.752;2023-04-27T09:33:26;98713.75;;;18.90;36.55
10948;BME280;5526;42.070;24.752;2023-04-27T09:35:54;98707.66;;;18.98;36.85
10948;BME280;5526;42.070;24.752;2023-04-27T09:38:22;98709.16;;;18.57;37.25
10948;BME280;5526;42.070;24.752;2023-04-27T09:40:52;98712.50;;;18.79;36.77
10948;BME280;5526;42.070;24.752;2023-04-27T09:43:19;98710.75;;;18.58;36.89
10948;BME280;5526;42.070;24.752;2023-04-27T09:45:48;98711.84;;;18.57;36.53
10948;BME280;5526;42.070;24.752;2023-04-27T09:48:16;98710.59;;;18.07;36.94
10948;BME280;5526;42.070;24.752;2023-04-27T09:50:44;98700.59;;;18.21;36.87
10948;BME280;5526;42.070;24.752;2023-04-27T09:53:14;98714.34;;;18.06;37.46
10948;BME280;5526;42.070;24.752;2023-04-27T09:55:43;98704.84;;;17.44;38.73
10948;BME280;5526;42.070;24.752;2023-04-27T09:58:28;98719.84;;;17.70;39.03
10948;BME280;5526;42.070;24.752;2023-04-27T10:01:04;98715.81;;;17.29;38.08
10948;BME280;5526;42.070;24.752;2023-04-27T10:03:45;98716.25;;;17.22;39.29
10948;BME280;5526;42.070;24.752;2023-04-27T10:06:50;98706.16;;;17.33;38.96
10948;BME280;5526;42.070;24.752;2023-04-27T10:09:19;98702.16;;;17.22;38.84
10948;BME280;5526;42.070;24.752;2023-04-27T10:11:48;98712.38;;;17.50;37.68
10948;BME280;5526;42.070;24.752;2023-04-27T10:14:18;98711.66;;;17.14;38.29
10948;BME280;5526;42.070;24.752;2023-04-27T10:16:50;98711.13;;;17.78;37.87
10948;BME280;5526;42.070;24.752;2023-04-27T10:19:18;98706.66;;;18.43;37.33
10948;BME280;5526;42.070;24.752;2023-04-27T10:21:54;98714.19;;;18.02;36.46
10948;BME280;5526;42.070;24.752;2023-04-27T10:24:36;98704.44;;;17.37;37.52
10948;BME280;5526;42.070;24.752;2023-04-27T10:27:04;98701.22;;;17.70;37.38
10948;BME280;5526;42.070;24.752;2023-04-27T10:29:38;98695.28;;;17.43;37.41
10948;BME280;5526;42.070;24.752;2023-04-27T10:32:07;98701.59;;;17.55;38.30
10948;BME280;5526;42.070;24.752;2023-04-27T10:34:35;98709.28;;;17.35;39.27
10948;BME280;5526;42.070;24.752;2023-04-27T10:37:07;98713.06;;;17.56;38.19
10948;BME280;5526;42.070;24.752;2023-04-27T10:39:36;98708.81;;;17.11;38.68
10948;BME280;5526;42.070;24.752;2023-04-27T10:42:04;98708.78;;;16.66;39.03
10948;BME280;5526;42.070;24.752;2023-04-27T10:44:33;98704.44;;;17.15;38.15
10948;BME280;5526;42.070;24.752;2023-04-27T10:47:12;98707.94;;;17.24;37.15
10948;BME280;5526;42.070;24.752;2023-04-27T10:49:39;98702.53;;;17.90;37.50
10948;BME280;5526;42.070;24.752;2023-04-27T10:52:06;98712.22;;;17.77;37.77
10948;BME280;5526;42.070;24.752;2023-04-27T10:54:34;98705.84;;;17.87;36.98
10948;BME280;5526;42.070;24.752;2023-04-27T10:57:03;98689.69;;;17.53;37.74
10948;BME280;5526;42.070;24.752;2023-04-27T10:59:31;98713.06;;;17.95;37.69
10948;BME280;5526;42.070;24.752;2023-04-27T11:01:59;98724.56;;;18.12;36.53
10948;BME280;5526;42.070;24.752;2023-04-27T11:04:40;98712.53;;;16.87;37.81
10948;BME280;5526;42.070;24.752;2023-04-27T11:07:08;98713.81;;;17.12;38.26
10948;BME280;5526;42.070;24.752;2023-04-27T11:09:37;98725.06;;;16.87;38.65
10948;BME280;5526;42.070;24.752;2023-04-27T11:12:06;98703.50;;;16.53;38.80
10948;BME280;5526;42.070;24.752;2023-04-27T11:14:33;98718.59;;;17.02;38.19
10948;BME280;5526;42.070;24.752;2023-04-27T11:17:01;98728.25;;;17.20;37.91
10948;BME280;5526;42.070;24.752;2023-04-27T11:19:30;98728.56;;;17.62;37.57
10948;BME280;5526;42.070;24.752;2023-04-27T11:22:05;98729.19;;;17.15;36.35
10948;BME280;5526;42.070;24.752;2023-04-27T11:24:32;98717.13;;;17.62;37.20
10948;BME280;5526;42.070;24.752;2023-04-27T11:26:59;98733.22;;;18.18;36.60
10948;BME280;5526;42.070;24.752;2023-04-27T11:29:36;98725.81;;;18.71;35.67
10948;BME280;5526;42.070;24.752;2023-04-27T11:32:04;98736.34;;;18.67;35.67
10948;BME280;5526;42.070;24.752;2023-04-27T11:34:32;98719.09;;;18.82;34.86
10948;BME280;5526;42.070;24.752;2023-04-27T11:37:05;98731.75;;;18.51;35.68
10948;BME280;5526;42.070;24.752;2023-04-27T11:39:33;98735.19;;;18.43;35.09
10948;BME280;5526;42.070;24.752;2023-04-27T11:42:14;98731.78;;;19.19;33.69
10948;BME280;5526;42.070;24.752;2023-04-27T11:44:48;98736.59;;;19.68;33.02
10948;BME280;5526;42.070;24.752;2023-04-27T11:47:16;98737.59;;;19.21;32.82
10948;BME280;5526;42.070;24.752;2023-04-27T11:49:46;98740.88;;;18.84;33.89
10948;BME280;5526;42.070;24.752;2023-04-27T11:52:14;98728.09;;;18.38;34.06
10948;BME280;5526;42.070;24.752;2023-04-27T11:54:48;98733.19;;;18.09;34.32
10948;BME280;5526;42.070;24.752;2023-04-27T11:57:17;98736.97;;;19.15;33.22
10948;BME280;5526;42.070;24.752;2023-04-27T11:59:49;98744.47;;;17.84;34.05
10948;BME280;5526;42.070;24.752;2023-04-27T12:02:18;98736.19;;;17.55;34.90
10948;BME280;5526;42.070;24.752;2023-04-27T12:04:46;98726.78;;;18.83;33.28
10948;BME280;5526;42.070;24.752;2023-04-27T12:07:15;98727.66;;;18.45;33.87
10948;BME280;5526;42.070;24.752;2023-04-27T12:09:42;98724.84;;;18.58;33.93
10948;BME280;5526;42.070;24.752;2023-04-27T12:12:10;98729.09;;;19.19;33.71
10948;BME280;5526;42.070;24.752;2023-04-27T12:14:38;98720.09;;;19.66;32.66
10948;BME280;5526;42.070;24.752;2023-04-27T12:17:05;98729.44;;;19.26;33.20
10948;BME280;5526;42.070;24.752;2023-04-27T12:19:33;98722.53;;;18.82;32.46
10948;BME280;5526;42.070;24.752;2023-04-27T12:22:02;98709.97;;;19.00;33.67
10948;BME280;5526;42.070;24.752;2023-04-27T12:24:30;98718.34;;;19.70;33.49
10948;BME280;5526;42.070;24.752;2023-04-27T12:26:58;98718.97;;;19.75;33.04
10948;BME280;5526;42.070;24.752;2023-04-27T12:29:26;98718.94;;;21.00;30.34
10948;BME280;5526;42.070;24.752;2023-04-27T12:31:53;98721.28;;;20.52;31.59
10948;BME280;5526;42.070;24.752;2023-04-27T12:34:20;98726.25;;;19.58;31.56
10948;BME280;5526;42.070;24.752;2023-04-27T12:36:47;98719.75;;;19.76;31.10
10948;BME280;5526;42.070;24.752;2023-04-27T12:39:15;98714.31;;;20.10;31.19
10948;BME280;5526;42.070;24.752;2023-04-27T12:41:45;98720.38;;;19.81;31.11
10948;BME280;5526;42.070;24.752;2023-04-27T12:44:13;98710.84;;;19.63;30.71
10948;BME280;5526;42.070;24.752;2023-04-27T12:46:40;98715.47;;;19.92;30.86
10948;BME280;5526;42.070;24.752;2023-04-27T12:49:08;98703.69;;;21.13;29.41
10948;BME280;5526;42.070;24.752;2023-04-27T12:51:36;98727.41;;;20.32;29.66
10948;BME280;5526;42.070;24.752;2023-04-27T12:54:04;98713.19;;;20.19;30.49
10948;BME280;5526;42.070;24.752;2023-04-27T12:56:32;98713.88;;;19.45;30.63
10948;BME280;5526;42.070;24.752;2023-04-27T12:59:01;98709.22;;;19.25;31.18
10948;BME280;5526;42.070;24.752;2023-04-27T13:01:28;98716.28;;;19.29;30.79
10948;BME280;5526;42.070;24.752;2023-04-27T13:03:58;98706.84;;;19.78;30.71
10948;BME280;5526;42.070;24.752;2023-04-27T13:06:26;98707.72;;;19.53;31.12